| time (UTC) | temp F | wind direction | speed MPH | gust MPH | rain 1hr in | rain 24hr in | rain mn in | humidity % | barometer mb |
| 20260504150514 | 62 | 268 | 3.0 | 10.0 | 0.00 | 0.00 | 0.00 | 38 | 1012.5 |
| 20260504141016 | 60 | 11 | 2.0 | 4.0 | 0.00 | 0.00 | 0.00 | 43 | 1012.5 |
| 20260504140514 | 60 | 204 | 2.0 | 4.0 | 0.00 | 0.00 | 0.00 | 43 | 1012.9 |
| 20260504130514 | 56 | 224 | 2.0 | 3.0 | 0.00 | 0.00 | 0.00 | 48 | 1013.2 |
| 20260504110514 | 44 | 232 | 0.0 | 3.0 | 0.00 | 0.00 | 0.00 | 70 | 1013.5 |
| 20260504100513 | 42 | 95 | 1.0 | 2.0 | 0.00 | 0.00 | 0.00 | 75 | 1013.2 |
| 20260504081514 | 45 | 136 | 1.0 | 2.0 | 0.00 | 0.00 | 0.00 | 68 | 1012.5 |
| 20260504081014 | 45 | 171 | 0.0 | 3.0 | 0.00 | 0.00 | 0.00 | 68 | 1012.5 |
| 20260504080514 | 45 | 356 | 0.0 | 3.0 | 0.00 | 0.00 | 0.00 | 67 | 1012.5 |
| 20260504050514 | 40 | 121 | 1.0 | 3.0 | 0.00 | 0.00 | 0.00 | 80 | 1011.9 |
| 20260504050016 | 40 | 94 | 0.0 | 3.0 | 0.00 | 0.00 | 0.00 | 80 | 1011.9 |
| 20260504045515 | 40 | 320 | 1.0 | 4.0 | 0.00 | 0.00 | 0.00 | 79 | 1011.9 |
| 20260504045014 | 40 | 230 | 2.0 | 3.0 | 0.00 | 0.00 | 0.00 | 79 | 1011.9 |
| 20260504044513 | 41 | 194 | 1.0 | 4.0 | 0.00 | 0.00 | 0.00 | 78 | 1011.9 |
| 20260504044013 | 41 | 5 | 2.0 | 3.0 | 0.00 | 0.00 | 0.00 | 78 | 1011.9 |
| 20260504043514 | 41 | 68 | 0.0 | 3.0 | 0.00 | 0.00 | 0.00 | 78 | 1011.9 |
| 20260504043013 | 41 | 57 | 0.0 | 3.0 | 0.00 | 0.00 | 0.00 | 77 | 1011.9 |
| 20260504042513 | 41 | 264 | 2.0 | 3.0 | 0.00 | 0.00 | 0.00 | 77 | 1011.9 |
| 20260504042013 | 41 | 350 | 2.0 | 3.0 | 0.00 | 0.00 | 0.00 | 76 | 1011.9 |
| 20260504041513 | 41 | 2 | 1.0 | 4.0 | 0.00 | 0.00 | 0.00 | 76 | 1011.9 |
| 20260504041014 | 41 | 288 | 2.0 | 5.0 | 0.00 | 0.00 | 0.00 | 76 | 1011.9 |
| 20260504040513 | 42 | 96 | 2.0 | 3.0 | 0.00 | 0.00 | 0.00 | 75 | 1011.9 |
| 20260504040013 | 42 | 154 | 3.0 | 4.0 | 0.00 | 0.00 | 0.00 | 75 | 1011.9 |
| 20260504035514 | 42 | 78 | 1.0 | 6.0 | 0.00 | 0.00 | 0.00 | 75 | 1011.9 |
| 20260504035013 | 42 | 253 | 0.0 | 3.0 | 0.00 | 0.00 | 0.00 | 75 | 1011.9 |
| 20260504034514 | 42 | 39 | 0.0 | 1.0 | 0.00 | 0.00 | 0.00 | 74 | 1011.9 |
| 20260504034013 | 42 | 353 | 0.0 | 3.0 | 0.00 | 0.00 | 0.00 | 73 | 1011.5 |
| 20260504033514 | 42 | 208 | 1.0 | 4.0 | 0.00 | 0.00 | 0.00 | 73 | 1011.9 |
| 20260504033013 | 42 | 184 | 2.0 | 3.0 | 0.00 | 0.00 | 0.00 | 73 | 1011.9 |
| 20260504032514 | 42 | 306 | 0.0 | 4.0 | 0.00 | 0.00 | 0.00 | 72 | 1011.5 |
| 20260504032013 | 43 | 33 | 3.0 | 5.0 | 0.00 | 0.00 | 0.00 | 71 | 1011.5 |
| 20260504031514 | 43 | 89 | 0.0 | 4.0 | 0.00 | 0.00 | 0.00 | 70 | 1011.9 |
| 20260504031015 | 43 | 94 | 0.0 | 3.0 | 0.00 | 0.00 | 0.00 | 70 | 1011.9 |
| 20260504030513 | 43 | 224 | 0.0 | 0.0 | 0.00 | 0.00 | 0.00 | 70 | 1011.5 |
| 20260504030013 | 43 | 147 | 0.0 | 0.0 | 0.00 | 0.00 | 0.00 | 70 | 1011.5 |
| 20260504025514 | 43 | 230 | 0.0 | 0.0 | 0.00 | 0.00 | 0.00 | 70 | 1011.5 |
| 20260504025013 | 43 | 230 | 0.0 | 0.0 | 0.00 | 0.00 | 0.00 | 70 | 1011.9 |
| 20260504024513 | 43 | 224 | 0.0 | 0.0 | 0.00 | 0.00 | 0.00 | 69 | 1011.5 |
| 20260504024013 | 44 | 224 | 0.0 | 0.0 | 0.00 | 0.00 | 0.00 | 69 | 1011.9 |
| 20260504023513 | 44 | 111 | 0.0 | 0.0 | 0.00 | 0.00 | 0.00 | 68 | 1011.9 |
| 20260504023013 | 44 | 111 | 0.0 | 0.0 | 0.00 | 0.00 | 0.00 | 68 | 1011.9 |
| 20260504022513 | 44 | 147 | 0.0 | 0.0 | 0.00 | 0.00 | 0.00 | 67 | 1011.9 |
| 20260504022014 | 44 | 63 | 0.0 | 0.0 | 0.00 | 0.00 | 0.00 | 65 | 1011.9 |
| 20260504021513 | 45 | 63 | 0.0 | 0.0 | 0.00 | 0.00 | 0.00 | 64 | 1011.5 |
| 20260504021014 | 45 | 63 | 0.0 | 0.0 | 0.00 | 0.00 | 0.00 | 64 | 1011.9 |
| 20260504020514 | 45 | 63 | 0.0 | 0.0 | 0.00 | 0.00 | 0.00 | 64 | 1011.9 |
| 20260504020014 | 46 | 37 | 0.0 | 0.0 | 0.00 | 0.00 | 0.00 | 64 | 1011.9 |
| 20260504015515 | 46 | 37 | 0.0 | 0.0 | 0.00 | 0.00 | 0.00 | 62 | 1011.9 |
| 20260504015013 | 46 | 166 | 0.0 | 0.0 | 0.00 | 0.00 | 0.00 | 61 | 1011.5 |
| 20260504014513 | 47 | 50 | 0.0 | 0.0 | 0.00 | 0.00 | 0.00 | 60 | 1011.5 |
| 20260504014013 | 47 | 117 | 0.0 | 0.0 | 0.00 | 0.00 | 0.00 | 59 | 1011.9 |
| 20260504013513 | 47 | 117 | 0.0 | 0.0 | 0.00 | 0.00 | 0.00 | 58 | 1011.5 |
| 20260504013014 | 48 | 117 | 0.0 | 0.0 | 0.00 | 0.00 | 0.00 | 58 | 1011.5 |
| 20260504012513 | 48 | 117 | 0.0 | 0.0 | 0.00 | 0.00 | 0.00 | 56 | 1011.5 |
| 20260504012014 | 49 | 230 | 0.0 | 0.0 | 0.00 | 0.00 | 0.00 | 53 | 1011.5 |
| 20260504011513 | 49 | 217 | 0.0 | 0.0 | 0.00 | 0.00 | 0.00 | 53 | 1011.5 |
| 20260504011014 | 49 | 50 | 0.0 | 0.0 | 0.00 | 0.00 | 0.00 | 51 | 1011.2 |
| 20260504010513 | 50 | 218 | 0.0 | 0.0 | 0.00 | 0.00 | 0.00 | 51 | 1011.2 |
| 20260504010014 | 50 | 142 | 0.0 | 0.0 | 0.00 | 0.00 | 0.00 | 50 | 1011.2 |
| 20260504005513 | 51 | 44 | 0.0 | 0.0 | 0.00 | 0.00 | 0.00 | 49 | 1011.2 |
| 20260504005013 | 51 | 44 | 0.0 | 0.0 | 0.00 | 0.00 | 0.00 | 47 | 1011.2 |
| 20260504004513 | 52 | 44 | 0.0 | 0.0 | 0.00 | 0.00 | 0.00 | 47 | 1011.2 |
| 20260504004013 | 53 | 44 | 0.0 | 0.0 | 0.00 | 0.00 | 0.00 | 44 | 1010.8 |
| 20260504003513 | 53 | 276 | 0.0 | 0.0 | 0.00 | 0.00 | 0.00 | 43 | 1010.8 |
| 20260504003015 | 53 | 315 | 0.0 | 0.0 | 0.00 | 0.00 | 0.00 | 42 | 1010.8 |
| 20260504002513 | 54 | 315 | 0.0 | 0.0 | 0.00 | 0.00 | 0.00 | 40 | 1010.5 |
| 20260504002013 | 54 | 297 | 0.0 | 1.0 | 0.00 | 0.00 | 0.00 | 40 | 1010.8 |
| 20260504001514 | 55 | 135 | 0.0 | 0.0 | 0.00 | 0.00 | 0.00 | 39 | 1010.5 |
| 20260504001013 | 55 | 176 | 0.0 | 0.0 | 0.00 | 0.00 | 0.00 | 37 | 1010.5 |
| 20260504000513 | 55 | 34 | 0.0 | 0.0 | 0.00 | 0.00 | 0.00 | 37 | 1010.2 |
| 20260504000013 | 56 | 184 | 1.0 | 2.0 | 0.00 | 0.00 | 0.00 | 36 | 1010.5 |
| 20260503235513 | 56 | 336 | 1.0 | 3.0 | 0.00 | 0.00 | 0.00 | 35 | 1010.2 |
| 20260503235013 | 56 | 174 | 1.0 | 2.0 | 0.00 | 0.00 | 0.00 | 36 | 1010.2 |
| 20260503234513 | 56 | 257 | 0.0 | 4.0 | 0.00 | 0.00 | 0.00 | 35 | 1010.2 |
| 20260503234014 | 56 | 191 | 0.0 | 2.0 | 0.00 | 0.00 | 0.00 | 36 | 1009.8 |
| 20260503233514 | 57 | 168 | 2.0 | 3.0 | 0.00 | 0.00 | 0.00 | 35 | 1009.8 |
| 20260503233013 | 57 | 197 | 0.0 | 2.0 | 0.00 | 0.00 | 0.00 | 33 | 1009.8 |
| 20260503232513 | 57 | 38 | 0.0 | 3.0 | 0.00 | 0.00 | 0.00 | 33 | 1009.8 |
| 20260503232015 | 57 | 335 | 1.0 | 5.0 | 0.00 | 0.00 | 0.00 | 33 | 1009.8 |
| 20260503231514 | 57 | 82 | 1.0 | 2.0 | 0.00 | 0.00 | 0.00 | 32 | 1009.8 |
| 20260503231014 | 57 | 160 | 0.0 | 2.0 | 0.00 | 0.00 | 0.00 | 32 | 1009.8 |
| 20260503230514 | 57 | 169 | 1.0 | 3.0 | 0.00 | 0.00 | 0.00 | 32 | 1009.5 |
| 20260503230014 | 57 | 172 | 0.0 | 4.0 | 0.00 | 0.00 | 0.00 | 31 | 1009.5 |
| 20260503225514 | 57 | 315 | 3.0 | 4.0 | 0.00 | 0.00 | 0.00 | 31 | 1009.5 |
| 20260503225013 | 57 | 180 | 0.0 | 4.0 | 0.00 | 0.00 | 0.00 | 30 | 1009.5 |
| 20260503224514 | 57 | 297 | 0.0 | 3.0 | 0.00 | 0.00 | 0.00 | 30 | 1009.8 |
| 20260503224014 | 57 | 18 | 1.0 | 5.0 | 0.00 | 0.00 | 0.00 | 30 | 1009.5 |
| 20260503223513 | 57 | 177 | 2.0 | 6.0 | 0.00 | 0.00 | 0.00 | 30 | 1009.5 |
| 20260503223014 | 58 | 185 | 0.0 | 7.0 | 0.00 | 0.00 | 0.00 | 30 | 1009.5 |
| 20260503222513 | 58 | 337 | 3.0 | 4.0 | 0.00 | 0.00 | 0.00 | 30 | 1009.5 |
| 20260503222013 | 58 | 64 | 4.0 | 7.0 | 0.00 | 0.00 | 0.00 | 30 | 1009.5 |
| 20260503221514 | 58 | 255 | 1.0 | 5.0 | 0.00 | 0.00 | 0.00 | 30 | 1009.5 |
| 20260503221014 | 58 | 148 | 2.0 | 6.0 | 0.00 | 0.00 | 0.00 | 30 | 1009.5 |
| 20260503220513 | 58 | 217 | 0.0 | 4.0 | 0.00 | 0.00 | 0.00 | 30 | 1009.5 |
| 20260503220013 | 59 | 175 | 4.0 | 5.0 | 0.00 | 0.00 | 0.00 | 29 | 1009.5 |
| 20260503215513 | 60 | 327 | 4.0 | 6.0 | 0.00 | 0.00 | 0.00 | 29 | 1009.5 |
| 20260503215013 | 59 | 299 | 1.0 | 6.0 | 0.00 | 0.00 | 0.00 | 29 | 1009.5 |
| 20260503214514 | 59 | 153 | 1.0 | 5.0 | 0.00 | 0.00 | 0.00 | 30 | 1009.5 |
| 20260503214013 | 59 | 25 | 1.0 | 6.0 | 0.00 | 0.00 | 0.00 | 30 | 1009.1 |
| 20260503213513 | 59 | 248 | 3.0 | 7.0 | 0.00 | 0.00 | 0.00 | 30 | 1009.5 |
| 20260503213014 | 59 | 184 | 1.0 | 3.0 | 0.00 | 0.00 | 0.00 | 30 | 1009.5 |
| 20260503212515 | 59 | 329 | 4.0 | 6.0 | 0.00 | 0.00 | 0.00 | 31 | 1009.5 |
| 20260503212014 | 59 | 333 | 2.0 | 5.0 | 0.00 | 0.00 | 0.00 | 31 | 1009.1 |
| 20260503211513 | 59 | 188 | 0.0 | 4.0 | 0.00 | 0.00 | 0.00 | 31 | 1009.5 |
| 20260503211013 | 59 | 183 | 4.0 | 4.0 | 0.00 | 0.00 | 0.00 | 33 | 1009.5 |
| 20260503210513 | 59 | 338 | 3.0 | 5.0 | 0.00 | 0.00 | 0.00 | 32 | 1009.5 |
| 20260503205652 | 58 | 186 | 2.0 | 4.0 | 0.00 | 0.00 | 0.00 | 33 | 1009.1 |
| 20260503205013 | 58 | 165 | 4.0 | 8.0 | 0.00 | 0.00 | 0.00 | 31 | 1009.5 |
| 20260503204513 | 58 | 173 | 2.0 | 7.0 | 0.00 | 0.00 | 0.00 | 31 | 1009.1 |
| 20260503204013 | 59 | 252 | 3.0 | 8.0 | 0.00 | 0.00 | 0.00 | 31 | 1009.1 |
| 20260503203514 | 58 | 135 | 1.0 | 5.0 | 0.00 | 0.00 | 0.00 | 32 | 1009.5 |
| 20260503203013 | 57 | 297 | 2.0 | 7.0 | 0.00 | 0.00 | 0.00 | 34 | 1009.5 |
| 20260503202513 | 56 | 265 | 0.0 | 6.0 | 0.00 | 0.00 | 0.00 | 34 | 1009.1 |
| 20260503202014 | 55 | 313 | 2.0 | 5.0 | 0.00 | 0.00 | 0.00 | 36 | 1009.1 |
| 20260503201514 | 57 | 339 | 3.0 | 5.0 | 0.00 | 0.00 | 0.00 | 35 | 1009.5 |
| 20260503201013 | 58 | 201 | 2.0 | 5.0 | 0.00 | 0.00 | 0.00 | 34 | 1009.1 |
| 20260503200513 | 56 | 194 | 2.0 | 5.0 | 0.00 | 0.00 | 0.00 | 36 | 1009.5 |
| 20260503200013 | 58 | 232 | 3.0 | 7.0 | 0.00 | 0.00 | 0.00 | 36 | 1009.5 |
| 20260503195513 | 58 | 316 | 1.0 | 7.0 | 0.00 | 0.00 | 0.00 | 35 | 1009.5 |
| 20260503195013 | 57 | 244 | 2.0 | 5.0 | 0.00 | 0.00 | 0.00 | 35 | 1009.5 |
| 20260503194514 | 57 | 197 | 1.0 | 6.0 | 0.00 | 0.00 | 0.00 | 34 | 1009.5 |
| 20260503194014 | 56 | 353 | 2.0 | 5.0 | 0.00 | 0.00 | 0.00 | 35 | 1009.5 |
| 20260503193514 | 55 | 214 | 3.0 | 5.0 | 0.00 | 0.00 | 0.00 | 36 | 1009.8 |
| 20260503193013 | 57 | 315 | 0.0 | 6.0 | 0.00 | 0.00 | 0.00 | 36 | 1009.5 |
| 20260503192514 | 57 | 128 | 4.0 | 9.0 | 0.00 | 0.00 | 0.00 | 36 | 1009.8 |
| 20260503192013 | 56 | 184 | 4.0 | 7.0 | 0.00 | 0.00 | 0.00 | 35 | 1009.8 |
| 20260503191514 | 57 | 316 | 4.0 | 8.0 | 0.00 | 0.00 | 0.00 | 36 | 1009.8 |
| 20260503191013 | 56 | 296 | 2.0 | 8.0 | 0.00 | 0.00 | 0.00 | 37 | 1009.8 |
| 20260503190513 | 55 | 332 | 0.0 | 5.0 | 0.00 | 0.00 | 0.00 | 36 | 1009.8 |
| 20260503190013 | 56 | 344 | 3.0 | 7.0 | 0.00 | 0.00 | 0.00 | 36 | 1009.8 |
| 20260503185513 | 55 | 329 | 3.0 | 5.0 | 0.00 | 0.00 | 0.00 | 38 | 1010.2 |
| 20260503185014 | 53 | 176 | 5.0 | 6.0 | 0.00 | 0.00 | 0.00 | 40 | 1009.8 |
| 20260503184514 | 53 | 337 | 4.0 | 5.0 | 0.00 | 0.00 | 0.00 | 40 | 1010.2 |
| 20260503184014 | 53 | 293 | 2.0 | 5.0 | 0.00 | 0.00 | 0.00 | 40 | 1009.8 |
| 20260503183513 | 53 | 214 | 2.0 | 7.0 | 0.00 | 0.00 | 0.00 | 39 | 1010.2 |
| 20260503183013 | 54 | 41 | 2.0 | 7.0 | 0.00 | 0.00 | 0.00 | 37 | 1010.5 |
| 20260503182514 | 54 | 314 | 4.0 | 10.0 | 0.00 | 0.00 | 0.00 | 40 | 1010.2 |
| 20260503182013 | 54 | 170 | 7.0 | 10.0 | 0.00 | 0.00 | 0.00 | 39 | 1009.8 |
| 20260503181515 | 56 | 234 | 3.0 | 8.0 | 0.00 | 0.00 | 0.00 | 37 | 1010.2 |
| 20260503181013 | 55 | 32 | 2.0 | 5.0 | 0.00 | 0.00 | 0.00 | 39 | 1009.8 |
| 20260503180514 | 54 | 334 | 3.0 | 3.0 | 0.00 | 0.00 | 0.00 | 40 | 1009.8 |
| 20260503180014 | 55 | 298 | 4.0 | 7.0 | 0.00 | 0.00 | 0.00 | 36 | 1010.2 |
| 20260503175513 | 53 | 181 | 3.0 | 8.0 | 0.00 | 0.00 | 0.00 | 37 | 1010.2 |
| 20260503175014 | 54 | 289 | 6.0 | 11.0 | 0.00 | 0.00 | 0.00 | 38 | 1010.2 |
| 20260503174515 | 55 | 330 | 6.0 | 8.0 | 0.00 | 0.00 | 0.00 | 37 | 1009.8 |
| 20260503174013 | 55 | 319 | 0.0 | 7.0 | 0.00 | 0.00 | 0.00 | 36 | 1010.2 |
| 20260503173513 | 54 | 358 | 3.0 | 6.0 | 0.00 | 0.00 | 0.00 | 38 | 1009.8 |
| 20260503173013 | 53 | 108 | 1.0 | 6.0 | 0.00 | 0.00 | 0.00 | 36 | 1010.2 |
| 20260503172514 | 53 | 316 | 2.0 | 6.0 | 0.00 | 0.00 | 0.00 | 36 | 1010.2 |
| 20260503172014 | 54 | 183 | 2.0 | 8.0 | 0.00 | 0.00 | 0.00 | 35 | 1009.8 |
| 20260503171513 | 52 | 338 | 5.0 | 8.0 | 0.00 | 0.00 | 0.00 | 38 | 1010.2 |
| 20260503171013 | 54 | 168 | 7.0 | 10.0 | 0.00 | 0.00 | 0.00 | 37 | 1009.8 |
| 20260503170514 | 53 | 172 | 0.0 | 5.0 | 0.00 | 0.00 | 0.00 | 36 | 1010.2 |
| 20260503151014 | 49 | 339 | 3.0 | 3.0 | 0.00 | 0.00 | 0.00 | 49 | 1010.8 |